createdAt,value
2022-08-07T00:01:43.249Z,19.60
2022-08-07T00:03:53.066Z,19.80
2022-08-07T00:06:32.884Z,19.70
2022-08-07T00:09:16.278Z,19.70
2022-08-07T00:11:53.979Z,19.60
2022-08-07T00:14:29.866Z,19.50
2022-08-07T00:16:59.504Z,19.50
2022-08-07T00:19:34.074Z,19.50
2022-08-07T00:22:24.371Z,19.50
2022-08-07T00:25:16.705Z,19.30
2022-08-07T00:27:53.485Z,19.30
2022-08-07T00:30:27.934Z,19.30
2022-08-07T00:32:56.750Z,19.30
2022-08-07T00:35:23.588Z,19.30
2022-08-07T00:37:50.924Z,19.20
2022-08-07T00:40:39.209Z,19.20
2022-08-07T00:43:10.004Z,19.20
2022-08-07T00:45:41.948Z,19.10
2022-08-07T00:48:13.428Z,19.30
2022-08-07T00:50:51.120Z,19.30
2022-08-07T00:53:20.545Z,19.20
2022-08-07T00:56:00.759Z,19.00
2022-08-07T00:58:49.831Z,18.90
2022-08-07T01:01:20.445Z,19.10
2022-08-07T01:03:55.954Z,19.10
2022-08-07T01:06:28.684Z,18.90
2022-08-07T01:08:58.299Z,19.00
2022-08-07T01:12:09.428Z,19.00
2022-08-07T01:14:15.362Z,18.90
2022-08-07T01:16:46.808Z,18.90
2022-08-07T01:19:19.277Z,19.00
2022-08-07T01:21:48.301Z,19.00
2022-08-07T01:24:18.776Z,18.90
2022-08-07T01:26:51.730Z,19.00
2022-08-07T01:29:20.155Z,19.00
2022-08-07T01:31:49.507Z,18.90
2022-08-07T01:34:18.617Z,18.70
2022-08-07T01:36:52.975Z,18.50
2022-08-07T01:39:39.671Z,18.40
2022-08-07T01:42:40.001Z,18.40
2022-08-07T01:45:09.628Z,18.30
2022-08-07T01:48:17.839Z,18.20
2022-08-07T01:50:30.765Z,18.50
2022-08-07T01:53:00.168Z,18.60
2022-08-07T01:55:33.318Z,18.60
2022-08-07T01:58:27.166Z,18.50
2022-08-07T02:01:09.524Z,18.50
2022-08-07T02:03:51.244Z,18.30
2022-08-07T02:06:32.058Z,18.50
2022-08-07T02:09:04.253Z,18.60
2022-08-07T02:12:05.034Z,18.60
2022-08-07T02:14:36.146Z,18.60
2022-08-07T02:17:07.904Z,18.60
2022-08-07T02:20:04.211Z,18.30
2022-08-07T02:22:26.246Z,18.20
2022-08-07T02:24:57.451Z,18.30
2022-08-07T02:27:26.368Z,18.50
2022-08-07T02:30:07.352Z,18.50
2022-08-07T02:32:39.411Z,18.40
2022-08-07T02:36:28.644Z,18.20
2022-08-07T02:38:14.406Z,18.20
2022-08-07T02:40:46.495Z,18.30
2022-08-07T02:43:15.840Z,18.20
2022-08-07T02:45:58.290Z,18.00
2022-08-07T02:48:26.752Z,18.20
2022-08-07T02:50:56.113Z,18.10
2022-08-07T02:53:38.549Z,18.00
2022-08-07T02:56:17.532Z,18.00
2022-08-07T02:58:49.966Z,17.90
2022-08-07T03:01:35.910Z,17.90
2022-08-07T03:04:06.989Z,17.90
2022-08-07T03:06:35.686Z,18.00
2022-08-07T03:09:07.884Z,18.00
2022-08-07T03:11:51.783Z,17.90
2022-08-07T03:14:25.314Z,17.90
2022-08-07T03:16:52.415Z,17.90
2022-08-07T03:19:20.308Z,17.80
2022-08-07T03:21:50.501Z,17.60
2022-08-07T03:24:26.872Z,17.80
2022-08-07T03:26:59.788Z,17.70
2022-08-07T03:29:37.384Z,17.70
2022-08-07T03:32:08.317Z,17.50
2022-08-07T03:34:39.441Z,17.50
2022-08-07T03:37:11.906Z,17.60
2022-08-07T03:39:46.416Z,17.70
2022-08-07T03:42:27.217Z,17.50
2022-08-07T03:44:57.813Z,17.50
2022-08-07T03:47:25.998Z,17.60
2022-08-07T03:49:56.781Z,17.60
2022-08-07T03:52:29.279Z,17.50
2022-08-07T03:55:06.703Z,17.60
2022-08-07T03:58:32.516Z,17.60
2022-08-07T04:00:29.414Z,17.60
2022-08-07T04:02:59.083Z,17.40
2022-08-07T04:05:39.750Z,17.40
2022-08-07T04:08:16.354Z,17.40
2022-08-07T04:10:54.573Z,17.50
2022-08-07T04:14:10.294Z,17.40
2022-08-07T04:16:31.274Z,17.30
2022-08-07T04:19:12.638Z,17.40
2022-08-07T04:21:59.414Z,17.20
2022-08-07T04:24:38.666Z,17.10
2022-08-07T04:27:06.196Z,17.00
2022-08-07T04:29:58.590Z,16.90
2022-08-07T04:32:34.662Z,17.00
2022-08-07T04:35:05.524Z,17.10
2022-08-07T04:38:00.951Z,17.30
2022-08-07T04:40:29.644Z,17.50
2022-08-07T04:43:01.284Z,17.50
2022-08-07T04:45:57.562Z,17.40
2022-08-07T04:48:26.544Z,17.50
2022-08-07T04:51:11.287Z,17.30
2022-08-07T04:54:38.202Z,17.30
2022-08-07T04:58:09.702Z,17.40
2022-08-07T05:00:25.562Z,17.40
2022-08-07T05:03:17.108Z,17.40
2022-08-07T05:06:19.937Z,17.70
2022-08-07T05:09:15.724Z,17.80
2022-08-07T05:11:57.171Z,18.00
2022-08-07T05:14:52.380Z,17.80
2022-08-07T05:17:52.932Z,18.00
2022-08-07T05:20:17.040Z,18.30
2022-08-07T05:22:47.565Z,18.40
2022-08-07T05:25:36.604Z,18.60
2022-08-07T05:28:20.228Z,18.60
2022-08-07T05:30:52.212Z,18.50
2022-08-07T05:33:21.210Z,18.60
2022-08-07T05:35:52.889Z,18.80
2022-08-07T05:38:59.384Z,19.00
2022-08-07T05:41:14.115Z,19.00
2022-08-07T05:44:08.073Z,19.40
2022-08-07T05:46:34.959Z,19.60
2022-08-07T05:49:11.954Z,20.00
2022-08-07T05:51:42.254Z,20.10
2022-08-07T05:54:30.071Z,20.20
2022-08-07T05:56:59.043Z,20.30
2022-08-07T05:59:27.425Z,20.50
2022-08-07T06:01:57.853Z,20.60
2022-08-07T06:04:29.903Z,20.90
2022-08-07T06:07:03.486Z,21.10
2022-08-07T06:10:03.710Z,21.30
2022-08-07T06:12:20.923Z,21.50
2022-08-07T06:14:55.189Z,21.60
2022-08-07T06:17:37.407Z,21.80
2022-08-07T06:20:12.749Z,21.90
2022-08-07T06:23:02.161Z,22.10
2022-08-07T06:25:41.466Z,22.40
2022-08-07T06:28:28.046Z,22.60
2022-08-07T06:30:58.052Z,22.70
2022-08-07T06:33:26.566Z,22.90
2022-08-07T06:36:13.004Z,24.30
2022-08-07T06:38:51.601Z,24.60
2022-08-07T06:42:01.753Z,25.20
2022-08-07T06:44:34.086Z,25.60
2022-08-07T06:47:12.329Z,26.50
2022-08-07T06:49:51.865Z,26.50
2022-08-07T06:52:31.907Z,27.00
2022-08-07T06:55:33.827Z,27.60
2022-08-07T06:58:09.482Z,27.50
2022-08-07T07:00:42.474Z,27.50
2022-08-07T07:03:13.636Z,27.80
2022-08-07T07:06:02.869Z,26.80
2022-08-07T07:08:33.016Z,27.10
2022-08-07T07:11:01.285Z,27.80
2022-08-07T07:13:57.434Z,27.90
2022-08-07T07:16:30.402Z,27.50
2022-08-07T07:19:11.421Z,28.00
2022-08-07T07:22:04.971Z,27.70
2022-08-07T07:24:43.020Z,28.00
2022-08-07T07:27:13.393Z,27.60
2022-08-07T07:30:08.816Z,25.70
2022-08-07T07:32:38.641Z,26.80
2022-08-07T07:35:06.792Z,27.20
2022-08-07T07:37:47.368Z,25.70
2022-08-07T07:40:26.041Z,25.80
2022-08-07T07:42:55.764Z,26.90
2022-08-07T07:46:40.020Z,27.40
2022-08-07T07:48:24.307Z,26.10
2022-08-07T07:51:08.053Z,26.90
2022-08-07T07:53:51.705Z,26.60
2022-08-07T07:56:30.103Z,25.80
2022-08-07T07:59:04.221Z,26.20
2022-08-07T08:02:01.999Z,25.80
2022-08-07T08:04:25.429Z,25.80
2022-08-07T08:06:54.296Z,25.60
2022-08-07T08:09:29.669Z,25.40
2022-08-07T08:12:01.557Z,24.70
2022-08-07T08:14:31.952Z,23.60
2022-08-07T08:17:55.781Z,25.00
2022-08-07T08:20:17.829Z,24.20
2022-08-07T08:23:00.570Z,24.60
2022-08-07T08:25:49.714Z,23.70
2022-08-07T08:28:24.168Z,24.50
2022-08-07T08:31:15.874Z,25.20
2022-08-07T08:33:50.114Z,25.00
2022-08-07T08:36:29.572Z,24.90
2022-08-07T08:39:02.049Z,23.90
2022-08-07T08:41:57.362Z,23.90
2022-08-07T08:44:29.321Z,23.60
2022-08-07T08:47:10.059Z,24.70
2022-08-07T08:49:46.341Z,24.80
2022-08-07T08:52:24.195Z,24.60
2022-08-07T08:55:54.993Z,25.10
2022-08-07T08:58:24.876Z,24.70
2022-08-07T09:01:15.000Z,25.20
2022-08-07T09:03:55.913Z,25.40
2022-08-07T09:06:55.655Z,24.80
2022-08-07T09:09:43.586Z,24.40
2022-08-07T09:12:34.199Z,24.80
2022-08-07T09:16:23.873Z,24.00
2022-08-07T09:18:38.630Z,24.10
2022-08-07T09:21:34.197Z,24.40
2022-08-07T09:24:53.950Z,24.10
2022-08-07T09:27:30.319Z,22.30
2022-08-07T09:30:08.322Z,23.90
2022-08-07T09:32:56.169Z,24.10
2022-08-07T09:36:01.317Z,24.50
2022-08-07T09:39:00.446Z,25.00
2022-08-07T09:42:03.030Z,25.10
2022-08-07T09:47:27.829Z,24.80
2022-08-07T09:48:02.824Z,25.00
2022-08-07T09:51:26.074Z,24.70
2022-08-07T09:54:02.541Z,24.20
2022-08-07T09:57:06.964Z,24.50
2022-08-07T10:00:04.704Z,24.10
2022-08-07T10:02:56.478Z,24.40
2022-08-07T10:06:09.005Z,25.00
2022-08-07T10:09:03.634Z,24.70
2022-08-07T10:12:01.807Z,24.60
2022-08-07T10:15:01.406Z,24.80
2022-08-07T10:18:02.508Z,24.80
2022-08-07T10:21:19.509Z,24.90
2022-08-07T10:24:23.077Z,25.20
2022-08-07T10:27:45.993Z,24.50
2022-08-07T10:30:19.995Z,24.50
2022-08-07T10:33:01.812Z,24.90
2022-08-07T10:35:55.870Z,24.80
2022-08-07T10:38:36.059Z,24.80
2022-08-07T10:41:47.027Z,24.90
2022-08-07T10:44:39.079Z,25.00
2022-08-07T10:47:52.854Z,25.20
2022-08-07T10:50:30.703Z,24.40
2022-08-07T10:53:10.822Z,24.90
2022-08-07T10:55:50.570Z,24.20
2022-08-07T10:58:33.209Z,24.20
2022-08-07T11:01:22.320Z,24.80
2022-08-07T11:04:31.412Z,25.00
2022-08-07T11:07:24.631Z,24.00
2022-08-07T11:10:11.079Z,23.80
2022-08-07T11:12:44.812Z,23.90
2022-08-07T11:15:31.450Z,23.80
2022-08-07T11:18:04.864Z,23.80
2022-08-07T11:20:43.204Z,23.50
2022-08-07T11:23:36.390Z,23.90
2022-08-07T11:26:28.275Z,23.70
2022-08-07T11:29:40.842Z,23.80
2022-08-07T11:32:25.467Z,23.60
2022-08-07T11:35:02.583Z,23.80
2022-08-07T11:38:12.653Z,23.70
2022-08-07T11:41:28.254Z,24.20
2022-08-07T11:44:12.645Z,23.70
2022-08-07T11:47:15.692Z,23.90
2022-08-07T11:50:31.489Z,24.30
2022-08-07T11:53:43.210Z,23.60
2022-08-07T11:56:56.895Z,23.30
2022-08-07T12:00:12.420Z,24.10
2022-08-07T12:03:44.763Z,23.30
2022-08-07T12:06:56.317Z,23.80
2022-08-07T12:09:41.668Z,24.10
2022-08-07T12:12:22.986Z,24.00
2022-08-07T12:15:08.057Z,23.80
2022-08-07T12:17:59.228Z,24.00
2022-08-07T12:20:35.113Z,24.00
2022-08-07T12:24:05.687Z,24.20
2022-08-07T12:26:46.970Z,23.90
2022-08-07T12:29:40.344Z,24.30
2022-08-07T12:32:15.985Z,24.50
2022-08-07T12:34:49.133Z,24.20
2022-08-07T12:37:23.299Z,23.60
2022-08-07T12:39:58.869Z,23.50
2022-08-07T12:42:28.620Z,23.60
2022-08-07T12:45:05.751Z,24.10
2022-08-07T12:47:43.976Z,24.40
2022-08-07T12:50:40.296Z,23.90
2022-08-07T12:54:24.280Z,23.90
2022-08-07T12:56:34.677Z,23.80
2022-08-07T12:59:08.278Z,24.10
2022-08-07T13:01:54.643Z,24.40
2022-08-07T13:04:34.577Z,24.00
2022-08-07T13:08:12.654Z,23.50
2022-08-07T13:10:39.671Z,24.20
2022-08-07T13:13:48.143Z,23.60
2022-08-07T13:16:17.655Z,23.80
2022-08-07T13:19:21.665Z,24.10
2022-08-07T13:22:28.389Z,23.70
2022-08-07T13:25:04.002Z,24.00
2022-08-07T13:28:11.206Z,24.10
2022-08-07T13:30:43.918Z,23.70
2022-08-07T13:34:30.139Z,23.90
2022-08-07T13:36:43.540Z,23.70
2022-08-07T13:39:49.322Z,23.50
2022-08-07T13:42:10.190Z,24.00
2022-08-07T13:44:39.535Z,23.90
2022-08-07T13:47:15.862Z,23.90
2022-08-07T13:50:35.670Z,23.90
2022-08-07T13:52:43.163Z,24.40
2022-08-07T13:55:25.472Z,23.80
2022-08-07T13:58:31.464Z,24.00
2022-08-07T14:01:13.578Z,23.80
2022-08-07T14:04:07.370Z,23.90
2022-08-07T14:06:35.420Z,24.10
2022-08-07T14:09:04.662Z,24.20
2022-08-07T14:11:53.184Z,23.90
2022-08-07T14:14:33.816Z,23.90
2022-08-07T14:17:32.375Z,24.20
2022-08-07T14:20:42.699Z,24.50
2022-08-07T14:22:51.691Z,24.40
2022-08-07T14:25:24.231Z,24.00
2022-08-07T14:28:11.750Z,23.60
2022-08-07T14:30:52.190Z,23.60
2022-08-07T14:33:22.224Z,23.90
2022-08-07T14:35:58.513Z,23.90
2022-08-07T14:38:31.368Z,24.00
2022-08-07T14:41:14.906Z,23.50
2022-08-07T14:43:57.300Z,23.60
2022-08-07T14:46:32.525Z,23.80
2022-08-07T14:49:17.578Z,23.30
2022-08-07T14:52:03.641Z,23.30
2022-08-07T14:57:54.383Z,23.80
2022-08-07T15:00:20.760Z,23.50
2022-08-07T15:03:15.663Z,24.00
2022-08-07T15:05:55.295Z,24.20
2022-08-07T15:08:33.806Z,24.10
2022-08-07T15:11:02.701Z,23.60
2022-08-07T15:13:37.063Z,23.70
2022-08-07T15:16:10.814Z,23.80
2022-08-07T15:18:45.369Z,23.80
2022-08-07T15:21:59.462Z,23.60
2022-08-07T15:25:14.832Z,23.20
2022-08-07T15:27:05.873Z,23.40
2022-08-07T15:30:08.801Z,23.40
2022-08-07T15:32:39.438Z,23.30
2022-08-07T15:35:13.400Z,23.40
2022-08-07T15:40:34.478Z,23.40
2022-08-07T15:46:32.155Z,23.00
2022-08-07T15:49:16.753Z,23.40
2022-08-07T15:54:39.644Z,23.40
2022-08-07T15:57:39.807Z,23.00
2022-08-07T16:00:04.460Z,22.60
2022-08-07T16:02:41.231Z,23.00
2022-08-07T16:05:17.929Z,23.00
2022-08-07T16:08:30.793Z,23.10
2022-08-07T16:10:51.961Z,23.10
2022-08-07T16:13:59.128Z,22.80
2022-08-07T16:16:48.086Z,23.00
2022-08-07T16:19:18.340Z,22.90
2022-08-07T16:22:14.804Z,22.80
2022-08-07T16:25:23.410Z,22.90
2022-08-07T16:30:07.193Z,22.60
2022-08-07T16:31:51.451Z,22.70
2022-08-07T16:34:30.535Z,22.10
2022-08-07T16:37:02.660Z,22.60
2022-08-07T16:40:23.377Z,22.70
2022-08-07T16:43:07.435Z,22.80
2022-08-07T16:46:33.730Z,23.00
2022-08-07T16:50:27.790Z,22.40
2022-08-07T16:52:52.565Z,22.50
2022-08-07T16:55:46.991Z,22.30
2022-08-07T16:58:33.672Z,22.40
2022-08-07T17:01:34.257Z,22.60
2022-08-07T17:04:24.854Z,22.50
2022-08-07T17:07:05.212Z,22.00
2022-08-07T17:10:06.825Z,22.10
2022-08-07T17:12:42.280Z,22.10
2022-08-07T17:15:57.001Z,22.10
2022-08-07T17:19:16.470Z,22.20
2022-08-07T17:21:50.811Z,22.20
2022-08-07T17:24:28.718Z,22.20
2022-08-07T17:27:02.504Z,22.30
2022-08-07T17:30:15.860Z,22.00
2022-08-07T17:34:09.983Z,22.20
2022-08-07T17:36:03.300Z,22.00
2022-08-07T17:38:44.480Z,21.80
2022-08-07T17:42:01.524Z,22.40
2022-08-07T17:44:34.025Z,22.00
2022-08-07T17:47:16.595Z,22.10
2022-08-07T17:50:06.011Z,21.90
2022-08-07T17:52:43.567Z,21.90
2022-08-07T17:55:12.908Z,22.00
2022-08-07T17:57:59.012Z,21.80
2022-08-07T18:00:34.260Z,21.60
2022-08-07T18:03:54.054Z,21.50
2022-08-07T18:06:38.215Z,21.80
2022-08-07T18:09:08.529Z,21.40
2022-08-07T18:12:08.183Z,21.40
2022-08-07T18:14:49.743Z,21.40
2022-08-07T18:18:33.094Z,21.70
2022-08-07T18:21:08.887Z,21.50
2022-08-07T18:23:43.829Z,21.20
2022-08-07T18:26:18.045Z,21.20
2022-08-07T18:29:02.734Z,21.10
2022-08-07T18:31:50.254Z,21.20
2022-08-07T18:34:53.285Z,21.00
2022-08-07T18:38:57.297Z,21.40
2022-08-07T18:41:10.274Z,21.30
2022-08-07T18:44:00.664Z,21.10
2022-08-07T18:46:33.347Z,21.20
2022-08-07T18:50:30.967Z,21.30
2022-08-07T18:53:04.604Z,21.20
2022-08-07T18:55:57.367Z,21.30
2022-08-07T18:58:25.872Z,21.30
2022-08-07T19:02:19.301Z,21.20
2022-08-07T19:04:32.379Z,21.00
2022-08-07T19:07:36.230Z,21.40
2022-08-07T19:10:22.962Z,21.30
2022-08-07T19:13:11.674Z,21.40
2022-08-07T19:17:05.041Z,21.20
2022-08-07T19:19:42.886Z,21.20
2022-08-07T19:22:30.812Z,21.00
2022-08-07T19:25:06.423Z,21.20
2022-08-07T19:28:57.947Z,21.20
2022-08-07T19:30:58.092Z,20.90
2022-08-07T19:33:34.785Z,21.10
2022-08-07T19:36:04.101Z,21.50
2022-08-07T19:38:35.093Z,21.80
2022-08-07T19:41:44.182Z,21.60
2022-08-07T19:44:21.946Z,21.30
2022-08-07T19:46:55.565Z,21.00
2022-08-07T19:49:57.990Z,21.20
2022-08-07T19:52:18.445Z,21.20
2022-08-07T19:54:56.194Z,21.10
2022-08-07T19:58:01.299Z,21.00
2022-08-07T20:00:36.550Z,20.90
2022-08-07T20:03:33.625Z,21.30
2022-08-07T20:06:00.713Z,21.40
2022-08-07T20:08:31.539Z,21.50
2022-08-07T20:11:03.787Z,21.60
2022-08-07T20:13:45.217Z,21.80
2022-08-07T20:16:36.267Z,21.70
2022-08-07T20:19:10.372Z,21.60
2022-08-07T20:21:47.362Z,21.40
2022-08-07T20:24:20.566Z,21.30
2022-08-07T20:26:52.363Z,21.40
2022-08-07T20:29:46.636Z,21.50
2022-08-07T20:32:22.224Z,21.40
2022-08-07T20:34:57.473Z,21.50
2022-08-07T20:37:34.012Z,22.00
2022-08-07T20:40:32.787Z,21.60
2022-08-07T20:42:58.825Z,22.10
2022-08-07T20:45:33.248Z,22.20
2022-08-07T20:48:29.076Z,22.10
2022-08-07T20:51:02.886Z,22.20
2022-08-07T20:54:03.609Z,22.20
2022-08-07T20:56:27.288Z,22.20
2022-08-07T20:58:58.893Z,22.20
2022-08-07T21:01:29.746Z,22.00
2022-08-07T21:04:23.282Z,22.00
2022-08-07T21:06:55.389Z,22.00
2022-08-07T21:09:53.290Z,22.00
2022-08-07T21:12:29.017Z,22.10
2022-08-07T21:15:02.827Z,22.10
2022-08-07T21:18:02.674Z,22.20
2022-08-07T21:20:30.362Z,22.20
2022-08-07T21:23:08.449Z,22.20
2022-08-07T21:26:20.531Z,22.20
2022-08-07T21:28:50.940Z,22.20
2022-08-07T21:32:41.582Z,22.20
2022-08-07T21:34:26.752Z,22.20
2022-08-07T21:37:01.768Z,22.20
2022-08-07T21:40:06.153Z,22.10
2022-08-07T21:43:13.846Z,22.20
2022-08-07T21:46:09.502Z,22.10
2022-08-07T21:48:48.312Z,22.20
2022-08-07T21:51:32.265Z,22.20
2022-08-07T21:54:27.492Z,22.20
2022-08-07T21:57:39.602Z,22.20
2022-08-07T22:00:22.809Z,22.10
2022-08-07T22:03:03.523Z,22.20
2022-08-07T22:05:45.248Z,22.20
2022-08-07T22:08:18.838Z,22.10
2022-08-07T22:10:59.047Z,22.10
2022-08-07T22:13:52.922Z,22.20
2022-08-07T22:16:42.880Z,22.10
2022-08-07T22:19:46.398Z,22.20
2022-08-07T22:22:27.847Z,22.10
2022-08-07T22:25:07.576Z,22.10
2022-08-07T22:28:07.215Z,22.10
2022-08-07T22:30:31.782Z,22.10
2022-08-07T22:33:15.199Z,22.00
2022-08-07T22:36:06.802Z,22.00
2022-08-07T22:38:54.031Z,21.90
2022-08-07T22:42:03.878Z,22.00
2022-08-07T22:44:38.085Z,22.00
2022-08-07T22:48:31.713Z,22.00
2022-08-07T22:51:07.905Z,22.00
2022-08-07T22:54:07.709Z,22.00
2022-08-07T22:56:56.903Z,22.00
2022-08-07T22:59:45.371Z,21.90
2022-08-07T23:02:19.356Z,21.90
2022-08-07T23:06:08.681Z,21.90
2022-08-07T23:08:34.262Z,21.90
2022-08-07T23:11:19.758Z,21.80
2022-08-07T23:14:15.071Z,21.80
2022-08-07T23:17:00.859Z,21.80
2022-08-07T23:19:57.933Z,21.80
2022-08-07T23:22:32.642Z,21.80
2022-08-07T23:25:19.010Z,21.70
2022-08-07T23:28:22.948Z,21.70
2022-08-07T23:31:06.280Z,21.70
2022-08-07T23:34:19.741Z,21.60
2022-08-07T23:37:36.713Z,21.60
2022-08-07T23:40:56.598Z,21.60
2022-08-07T23:43:41.316Z,21.60
2022-08-07T23:46:43.113Z,21.50
2022-08-07T23:49:15.345Z,21.50
2022-08-07T23:52:58.956Z,21.50
2022-08-07T23:55:04.532Z,21.60
2022-08-07T23:57:44.010Z,21.50
